sensor_id;sensor_type;location;lat;lon;timestamp;P1;durP1;ratioP1;P2;durP2;ratioP2
75639;SDS011;64233;51.486;6.332;2023-09-08T00:01:16;10.45;;;7.07;;
75639;SDS011;64233;51.486;6.332;2023-09-08T00:03:42;11.38;;;6.45;;
75639;SDS011;64233;51.486;6.332;2023-09-08T00:06:07;10.73;;;6.50;;
75639;SDS011;64233;51.486;6.332;2023-09-08T00:08:32;14.82;;;7.45;;
75639;SDS011;64233;51.486;6.332;2023-09-08T00:10:57;8.30;;;6.00;;
75639;SDS011;64233;51.486;6.332;2023-09-08T00:13:23;10.50;;;6.50;;
75639;SDS011;64233;51.486;6.332;2023-09-08T00:15:48;7.80;;;5.90;;
75639;SDS011;64233;51.486;6.332;2023-09-08T00:18:13;9.85;;;6.20;;
75639;SDS011;64233;51.486;6.332;2023-09-08T00:20:39;8.73;;;5.83;;
75639;SDS011;64233;51.486;6.332;2023-09-08T00:23:04;14.75;;;6.10;;
75639;SDS011;64233;51.486;6.332;2023-09-08T00:25:29;7.77;;;5.93;;
75639;SDS011;64233;51.486;6.332;2023-09-08T00:27:54;9.13;;;6.18;;
75639;SDS011;64233;51.486;6.332;2023-09-08T00:30:20;8.20;;;6.40;;
75639;SDS011;64233;51.486;6.332;2023-09-08T00:32:45;10.07;;;6.28;;
75639;SDS011;64233;51.486;6.332;2023-09-08T00:35:11;11.32;;;7.38;;
75639;SDS011;64233;51.486;6.332;2023-09-08T00:37:37;9.60;;;6.35;;
75639;SDS011;64233;51.486;6.332;2023-09-08T00:40:02;9.80;;;6.03;;
75639;SDS011;64233;51.486;6.332;2023-09-08T00:42:27;11.25;;;7.25;;
75639;SDS011;64233;51.486;6.332;2023-09-08T00:44:52;10.50;;;6.47;;
75639;SDS011;64233;51.486;6.332;2023-09-08T00:47:18;9.75;;;6.40;;
75639;SDS011;64233;51.486;6.332;2023-09-08T00:49:43;8.93;;;6.63;;
75639;SDS011;64233;51.486;6.332;2023-09-08T00:52:08;8.93;;;6.78;;
75639;SDS011;64233;51.486;6.332;2023-09-08T00:54:34;9.98;;;6.63;;
75639;SDS011;64233;51.486;6.332;2023-09-08T00:56:59;8.27;;;6.47;;
75639;SDS011;64233;51.486;6.332;2023-09-08T00:59:27;10.05;;;6.30;;
75639;SDS011;64233;51.486;6.332;2023-09-08T01:01:54;9.68;;;5.95;;
75639;SDS011;64233;51.486;6.332;2023-09-08T01:04:20;8.07;;;5.72;;
75639;SDS011;64233;51.486;6.332;2023-09-08T01:06:46;10.13;;;6.07;;
75639;SDS011;64233;51.486;6.332;2023-09-08T01:09:12;11.70;;;6.35;;
75639;SDS011;64233;51.486;6.332;2023-09-08T01:11:38;8.98;;;6.10;;
75639;SDS011;64233;51.486;6.332;2023-09-08T01:14:04;14.48;;;7.05;;
75639;SDS011;64233;51.486;6.332;2023-09-08T01:16:29;10.40;;;7.57;;
75639;SDS011;64233;51.486;6.332;2023-09-08T01:18:55;9.05;;;6.32;;
75639;SDS011;64233;51.486;6.332;2023-09-08T01:24:02;10.50;;;6.82;;
75639;SDS011;64233;51.486;6.332;2023-09-08T01:26:42;9.93;;;6.38;;
75639;SDS011;64233;51.486;6.332;2023-09-08T01:29:08;11.82;;;6.85;;
75639;SDS011;64233;51.486;6.332;2023-09-08T01:31:36;8.30;;;6.32;;
75639;SDS011;64233;51.486;6.332;2023-09-08T01:34:02;11.43;;;7.68;;
75639;SDS011;64233;51.486;6.332;2023-09-08T01:36:31;11.10;;;6.22;;
75639;SDS011;64233;51.486;6.332;2023-09-08T01:38:57;8.05;;;5.63;;
75639;SDS011;64233;51.486;6.332;2023-09-08T01:41:22;10.57;;;6.40;;
75639;SDS011;64233;51.486;6.332;2023-09-08T01:43:48;12.85;;;6.65;;
75639;SDS011;64233;51.486;6.332;2023-09-08T01:46:13;14.90;;;6.90;;
75639;SDS011;64233;51.486;6.332;2023-09-08T01:48:38;10.80;;;6.70;;
75639;SDS011;64233;51.486;6.332;2023-09-08T01:51:04;8.55;;;6.07;;
75639;SDS011;64233;51.486;6.332;2023-09-08T01:53:29;8.60;;;6.75;;
75639;SDS011;64233;51.486;6.332;2023-09-08T01:55:54;12.00;;;6.78;;
75639;SDS011;64233;51.486;6.332;2023-09-08T01:58:19;7.93;;;6.40;;
75639;SDS011;64233;51.486;6.332;2023-09-08T02:00:48;10.97;;;6.33;;
75639;SDS011;64233;51.486;6.332;2023-09-08T02:03:14;10.30;;;6.90;;
75639;SDS011;64233;51.486;6.332;2023-09-08T02:05:40;8.43;;;6.03;;
75639;SDS011;64233;51.486;6.332;2023-09-08T02:08:05;10.80;;;6.63;;
75639;SDS011;64233;51.486;6.332;2023-09-08T02:10:30;11.45;;;6.68;;
75639;SDS011;64233;51.486;6.332;2023-09-08T02:12:56;10.60;;;6.65;;
75639;SDS011;64233;51.486;6.332;2023-09-08T02:15:22;10.00;;;6.43;;
75639;SDS011;64233;51.486;6.332;2023-09-08T02:17:49;10.23;;;6.70;;
75639;SDS011;64233;51.486;6.332;2023-09-08T02:20:18;9.88;;;6.75;;
75639;SDS011;64233;51.486;6.332;2023-09-08T02:22:43;12.47;;;7.23;;
75639;SDS011;64233;51.486;6.332;2023-09-08T02:25:08;11.32;;;7.95;;
75639;SDS011;64233;51.486;6.332;2023-09-08T02:27:34;10.93;;;7.65;;
75639;SDS011;64233;51.486;6.332;2023-09-08T02:29:59;12.85;;;7.70;;
75639;SDS011;64233;51.486;6.332;2023-09-08T02:32:24;9.73;;;6.70;;
75639;SDS011;64233;51.486;6.332;2023-09-08T02:34:49;8.02;;;6.18;;
75639;SDS011;64233;51.486;6.332;2023-09-08T02:37:15;9.98;;;7.63;;
75639;SDS011;64233;51.486;6.332;2023-09-08T02:39:40;11.02;;;7.53;;
75639;SDS011;64233;51.486;6.332;2023-09-08T02:42:06;11.23;;;7.75;;
75639;SDS011;64233;51.486;6.332;2023-09-08T02:44:31;12.68;;;7.82;;
75639;SDS011;64233;51.486;6.332;2023-09-08T02:46:57;11.15;;;7.55;;
75639;SDS011;64233;51.486;6.332;2023-09-08T02:49:22;11.40;;;7.72;;
75639;SDS011;64233;51.486;6.332;2023-09-08T02:51:47;11.90;;;6.80;;
75639;SDS011;64233;51.486;6.332;2023-09-08T02:54:12;11.20;;;6.32;;
75639;SDS011;64233;51.486;6.332;2023-09-08T02:56:38;11.35;;;6.88;;
75639;SDS011;64233;51.486;6.332;2023-09-08T02:59:03;10.43;;;6.35;;
75639;SDS011;64233;51.486;6.332;2023-09-08T03:01:28;11.40;;;7.55;;
75639;SDS011;64233;51.486;6.332;2023-09-08T03:03:54;15.85;;;8.27;;
75639;SDS011;64233;51.486;6.332;2023-09-08T03:06:19;12.88;;;7.65;;
75639;SDS011;64233;51.486;6.332;2023-09-08T03:08:45;9.85;;;7.30;;
75639;SDS011;64233;51.486;6.332;2023-09-08T03:11:11;12.68;;;7.07;;
75639;SDS011;64233;51.486;6.332;2023-09-08T03:13:36;11.93;;;7.95;;
75639;SDS011;64233;51.486;6.332;2023-09-08T03:16:02;11.38;;;7.65;;
75639;SDS011;64233;51.486;6.332;2023-09-08T03:18:31;10.05;;;7.30;;
75639;SDS011;64233;51.486;6.332;2023-09-08T03:20:58;12.45;;;8.23;;
75639;SDS011;64233;51.486;6.332;2023-09-08T03:23:24;12.68;;;8.25;;
75639;SDS011;64233;51.486;6.332;2023-09-08T03:25:49;12.07;;;7.70;;
75639;SDS011;64233;51.486;6.332;2023-09-08T03:28:15;10.60;;;7.13;;
75639;SDS011;64233;51.486;6.332;2023-09-08T03:30:40;11.80;;;7.28;;
75639;SDS011;64233;51.486;6.332;2023-09-08T03:33:05;9.73;;;6.32;;
75639;SDS011;64233;51.486;6.332;2023-09-08T03:35:30;10.82;;;6.85;;
75639;SDS011;64233;51.486;6.332;2023-09-08T03:37:56;12.25;;;6.60;;
75639;SDS011;64233;51.486;6.332;2023-09-08T03:40:21;12.93;;;7.43;;
75639;SDS011;64233;51.486;6.332;2023-09-08T03:42:46;11.13;;;8.02;;
75639;SDS011;64233;51.486;6.332;2023-09-08T03:45:12;12.65;;;7.32;;
75639;SDS011;64233;51.486;6.332;2023-09-08T03:47:37;12.60;;;8.73;;
75639;SDS011;64233;51.486;6.332;2023-09-08T03:50:02;15.27;;;7.50;;
75639;SDS011;64233;51.486;6.332;2023-09-08T03:52:27;12.57;;;7.22;;
75639;SDS011;64233;51.486;6.332;2023-09-08T03:54:53;11.55;;;7.40;;
75639;SDS011;64233;51.486;6.332;2023-09-08T03:57:18;12.60;;;7.30;;
75639;SDS011;64233;51.486;6.332;2023-09-08T03:59:43;13.55;;;7.53;;
75639;SDS011;64233;51.486;6.332;2023-09-08T04:02:09;10.82;;;7.80;;
75639;SDS011;64233;51.486;6.332;2023-09-08T04:04:34;11.73;;;7.40;;
75639;SDS011;64233;51.486;6.332;2023-09-08T04:06:59;12.27;;;8.40;;
75639;SDS011;64233;51.486;6.332;2023-09-08T04:09:25;14.33;;;7.20;;
75639;SDS011;64233;51.486;6.332;2023-09-08T04:11:50;11.13;;;7.40;;
75639;SDS011;64233;51.486;6.332;2023-09-08T04:14:15;10.63;;;7.18;;
75639;SDS011;64233;51.486;6.332;2023-09-08T04:16:41;13.32;;;7.68;;
75639;SDS011;64233;51.486;6.332;2023-09-08T04:19:06;12.77;;;8.23;;
75639;SDS011;64233;51.486;6.332;2023-09-08T04:21:31;14.50;;;8.98;;
75639;SDS011;64233;51.486;6.332;2023-09-08T04:23:56;11.90;;;7.60;;
75639;SDS011;64233;51.486;6.332;2023-09-08T04:26:22;11.05;;;7.68;;
75639;SDS011;64233;51.486;6.332;2023-09-08T04:28:47;12.85;;;7.45;;
75639;SDS011;64233;51.486;6.332;2023-09-08T04:31:12;13.00;;;7.90;;
75639;SDS011;64233;51.486;6.332;2023-09-08T04:33:38;9.90;;;6.87;;
75639;SDS011;64233;51.486;6.332;2023-09-08T04:36:03;11.68;;;7.35;;
75639;SDS011;64233;51.486;6.332;2023-09-08T04:38:29;12.38;;;7.95;;
75639;SDS011;64233;51.486;6.332;2023-09-08T04:40:54;15.48;;;7.43;;
75639;SDS011;64233;51.486;6.332;2023-09-08T04:43:19;10.55;;;7.82;;
75639;SDS011;64233;51.486;6.332;2023-09-08T04:45:45;11.13;;;8.13;;
75639;SDS011;64233;51.486;6.332;2023-09-08T04:48:10;12.00;;;8.43;;
75639;SDS011;64233;51.486;6.332;2023-09-08T04:50:35;14.65;;;7.60;;
75639;SDS011;64233;51.486;6.332;2023-09-08T04:53:00;16.48;;;8.18;;
75639;SDS011;64233;51.486;6.332;2023-09-08T04:55:26;11.27;;;7.93;;
75639;SDS011;64233;51.486;6.332;2023-09-08T04:57:51;10.68;;;7.05;;
75639;SDS011;64233;51.486;6.332;2023-09-08T05:00:16;9.45;;;6.90;;
75639;SDS011;64233;51.486;6.332;2023-09-08T05:02:42;12.75;;;7.00;;
75639;SDS011;64233;51.486;6.332;2023-09-08T05:05:08;12.70;;;7.50;;
75639;SDS011;64233;51.486;6.332;2023-09-08T05:07:33;12.65;;;8.45;;
75639;SDS011;64233;51.486;6.332;2023-09-08T05:09:58;10.98;;;7.65;;
75639;SDS011;64233;51.486;6.332;2023-09-08T05:12:24;12.10;;;7.10;;
75639;SDS011;64233;51.486;6.332;2023-09-08T05:14:49;14.02;;;8.15;;
75639;SDS011;64233;51.486;6.332;2023-09-08T05:17:20;11.20;;;6.57;;
75639;SDS011;64233;51.486;6.332;2023-09-08T05:19:45;11.80;;;7.55;;
75639;SDS011;64233;51.486;6.332;2023-09-08T05:22:11;11.95;;;6.78;;
75639;SDS011;64233;51.486;6.332;2023-09-08T05:24:36;13.63;;;8.37;;
75639;SDS011;64233;51.486;6.332;2023-09-08T05:27:01;14.27;;;7.83;;
75639;SDS011;64233;51.486;6.332;2023-09-08T05:29:27;9.70;;;6.60;;
75639;SDS011;64233;51.486;6.332;2023-09-08T05:31:52;13.88;;;7.90;;
75639;SDS011;64233;51.486;6.332;2023-09-08T05:34:17;9.23;;;6.85;;
75639;SDS011;64233;51.486;6.332;2023-09-08T05:36:42;9.48;;;6.57;;
75639;SDS011;64233;51.486;6.332;2023-09-08T05:39:08;11.02;;;7.43;;
75639;SDS011;64233;51.486;6.332;2023-09-08T05:41:33;10.88;;;7.75;;
75639;SDS011;64233;51.486;6.332;2023-09-08T05:43:59;12.93;;;7.80;;
75639;SDS011;64233;51.486;6.332;2023-09-08T05:46:25;10.57;;;7.50;;
75639;SDS011;64233;51.486;6.332;2023-09-08T05:48:50;11.27;;;8.35;;
75639;SDS011;64233;51.486;6.332;2023-09-08T05:51:15;17.40;;;8.32;;
75639;SDS011;64233;51.486;6.332;2023-09-08T05:53:41;12.05;;;7.38;;
75639;SDS011;64233;51.486;6.332;2023-09-08T05:56:06;14.73;;;7.68;;
75639;SDS011;64233;51.486;6.332;2023-09-08T05:58:32;12.40;;;7.03;;
75639;SDS011;64233;51.486;6.332;2023-09-08T06:00:58;13.88;;;7.80;;
75639;SDS011;64233;51.486;6.332;2023-09-08T06:03:25;10.45;;;7.50;;
75639;SDS011;64233;51.486;6.332;2023-09-08T06:05:51;10.18;;;7.90;;
75639;SDS011;64233;51.486;6.332;2023-09-08T06:08:16;13.53;;;7.00;;
75639;SDS011;64233;51.486;6.332;2023-09-08T06:10:41;10.70;;;7.55;;
75639;SDS011;64233;51.486;6.332;2023-09-08T06:13:07;13.03;;;7.47;;
75639;SDS011;64233;51.486;6.332;2023-09-08T06:15:32;12.20;;;7.18;;
75639;SDS011;64233;51.486;6.332;2023-09-08T06:17:58;11.23;;;7.23;;
75639;SDS011;64233;51.486;6.332;2023-09-08T06:20:23;14.65;;;7.55;;
75639;SDS011;64233;51.486;6.332;2023-09-08T06:22:49;13.25;;;7.22;;
75639;SDS011;64233;51.486;6.332;2023-09-08T06:25:15;11.75;;;7.75;;
75639;SDS011;64233;51.486;6.332;2023-09-08T06:27:41;12.27;;;7.32;;
75639;SDS011;64233;51.486;6.332;2023-09-08T06:30:06;10.73;;;6.93;;
75639;SDS011;64233;51.486;6.332;2023-09-08T06:32:32;11.82;;;7.68;;
75639;SDS011;64233;51.486;6.332;2023-09-08T06:34:57;12.18;;;7.25;;
75639;SDS011;64233;51.486;6.332;2023-09-08T06:37:22;11.03;;;8.17;;
75639;SDS011;64233;51.486;6.332;2023-09-08T06:39:48;10.27;;;6.60;;
75639;SDS011;64233;51.486;6.332;2023-09-08T06:42:13;9.43;;;6.25;;
75639;SDS011;64233;51.486;6.332;2023-09-08T06:44:38;10.27;;;7.13;;
75639;SDS011;64233;51.486;6.332;2023-09-08T06:47:04;12.05;;;8.07;;
75639;SDS011;64233;51.486;6.332;2023-09-08T06:49:31;10.32;;;6.35;;
75639;SDS011;64233;51.486;6.332;2023-09-08T06:51:57;9.23;;;6.15;;
75639;SDS011;64233;51.486;6.332;2023-09-08T06:54:22;8.73;;;5.87;;
75639;SDS011;64233;51.486;6.332;2023-09-08T06:56:47;9.05;;;6.25;;
75639;SDS011;64233;51.486;6.332;2023-09-08T06:59:13;8.20;;;5.83;;
75639;SDS011;64233;51.486;6.332;2023-09-08T07:01:38;10.35;;;6.13;;
75639;SDS011;64233;51.486;6.332;2023-09-08T07:04:03;10.55;;;6.07;;
75639;SDS011;64233;51.486;6.332;2023-09-08T07:06:29;10.63;;;6.05;;
75639;SDS011;64233;51.486;6.332;2023-09-08T07:08:54;9.23;;;5.53;;
75639;SDS011;64233;51.486;6.332;2023-09-08T07:11:19;6.57;;;5.23;;
75639;SDS011;64233;51.486;6.332;2023-09-08T07:13:45;8.52;;;5.63;;
75639;SDS011;64233;51.486;6.332;2023-09-08T07:16:10;8.90;;;5.30;;
75639;SDS011;64233;51.486;6.332;2023-09-08T07:18:35;8.85;;;5.22;;
75639;SDS011;64233;51.486;6.332;2023-09-08T07:21:02;8.85;;;5.30;;
75639;SDS011;64233;51.486;6.332;2023-09-08T07:23:28;8.85;;;5.03;;
75639;SDS011;64233;51.486;6.332;2023-09-08T07:25:53;6.68;;;4.85;;
75639;SDS011;64233;51.486;6.332;2023-09-08T07:28:18;8.25;;;5.50;;
75639;SDS011;64233;51.486;6.332;2023-09-08T07:30:44;8.25;;;5.43;;
75639;SDS011;64233;51.486;6.332;2023-09-08T07:33:09;11.43;;;5.15;;
75639;SDS011;64233;51.486;6.332;2023-09-08T07:35:38;9.00;;;4.77;;
75639;SDS011;64233;51.486;6.332;2023-09-08T07:38:04;9.90;;;5.55;;
75639;SDS011;64233;51.486;6.332;2023-09-08T07:40:30;10.07;;;5.22;;
75639;SDS011;64233;51.486;6.332;2023-09-08T07:42:56;10.73;;;5.35;;
75639;SDS011;64233;51.486;6.332;2023-09-08T07:45:21;7.17;;;4.83;;
75639;SDS011;64233;51.486;6.332;2023-09-08T07:47:47;11.35;;;5.03;;
75639;SDS011;64233;51.486;6.332;2023-09-08T07:50:19;8.80;;;5.50;;
75639;SDS011;64233;51.486;6.332;2023-09-08T07:52:46;7.07;;;4.88;;
75639;SDS011;64233;51.486;6.332;2023-09-08T07:55:13;7.63;;;4.15;;
75639;SDS011;64233;51.486;6.332;2023-09-08T07:57:38;9.55;;;4.80;;
75639;SDS011;64233;51.486;6.332;2023-09-08T08:00:04;8.35;;;5.25;;
75639;SDS011;64233;51.486;6.332;2023-09-08T08:02:30;6.35;;;5.07;;
75639;SDS011;64233;51.486;6.332;2023-09-08T08:04:56;6.47;;;4.70;;
75639;SDS011;64233;51.486;6.332;2023-09-08T08:07:21;10.10;;;5.05;;
75639;SDS011;64233;51.486;6.332;2023-09-08T08:09:47;10.13;;;4.82;;
75639;SDS011;64233;51.486;6.332;2023-09-08T08:12:12;7.20;;;4.40;;
75639;SDS011;64233;51.486;6.332;2023-09-08T08:14:38;10.68;;;4.38;;
75639;SDS011;64233;51.486;6.332;2023-09-08T08:17:04;6.20;;;4.70;;
75639;SDS011;64233;51.486;6.332;2023-09-08T08:19:29;6.00;;;4.50;;
75639;SDS011;64233;51.486;6.332;2023-09-08T08:21:57;7.70;;;5.10;;
75639;SDS011;64233;51.486;6.332;2023-09-08T08:24:23;5.75;;;4.25;;
75639;SDS011;64233;51.486;6.332;2023-09-08T08:26:48;6.97;;;4.63;;
75639;SDS011;64233;51.486;6.332;2023-09-08T08:29:13;7.72;;;4.97;;
75639;SDS011;64233;51.486;6.332;2023-09-08T08:31:39;9.48;;;4.85;;
75639;SDS011;64233;51.486;6.332;2023-09-08T08:34:04;7.20;;;5.00;;
75639;SDS011;64233;51.486;6.332;2023-09-08T08:36:29;6.35;;;4.57;;
75639;SDS011;64233;51.486;6.332;2023-09-08T08:38:55;7.30;;;5.00;;
75639;SDS011;64233;51.486;6.332;2023-09-08T08:41:20;6.95;;;4.55;;
75639;SDS011;64233;51.486;6.332;2023-09-08T08:43:45;7.57;;;5.25;;
75639;SDS011;64233;51.486;6.332;2023-09-08T08:46:12;6.68;;;4.35;;
75639;SDS011;64233;51.486;6.332;2023-09-08T08:48:39;7.55;;;5.22;;
75639;SDS011;64233;51.486;6.332;2023-09-08T08:51:05;7.72;;;4.88;;
75639;SDS011;64233;51.486;6.332;2023-09-08T08:53:33;10.55;;;4.90;;
75639;SDS011;64233;51.486;6.332;2023-09-08T08:55:59;6.70;;;4.60;;
75639;SDS011;64233;51.486;6.332;2023-09-08T08:58:25;6.57;;;4.90;;
75639;SDS011;64233;51.486;6.332;2023-09-08T09:00:53;6.65;;;4.45;;
75639;SDS011;64233;51.486;6.332;2023-09-08T09:03:20;7.97;;;4.75;;
75639;SDS011;64233;51.486;6.332;2023-09-08T09:05:48;7.53;;;4.57;;
75639;SDS011;64233;51.486;6.332;2023-09-08T09:08:15;11.55;;;5.25;;
75639;SDS011;64233;51.486;6.332;2023-09-08T09:10:41;8.55;;;4.18;;
75639;SDS011;64233;51.486;6.332;2023-09-08T09:13:07;6.63;;;4.38;;
75639;SDS011;64233;51.486;6.332;2023-09-08T09:15:32;6.63;;;4.80;;
75639;SDS011;64233;51.486;6.332;2023-09-08T09:18:06;10.43;;;4.63;;
75639;SDS011;64233;51.486;6.332;2023-09-08T09:20:33;6.55;;;4.40;;
75639;SDS011;64233;51.486;6.332;2023-09-08T09:22:59;6.38;;;4.80;;
75639;SDS011;64233;51.486;6.332;2023-09-08T09:25:26;7.93;;;4.13;;
75639;SDS011;64233;51.486;6.332;2023-09-08T09:27:57;7.82;;;4.43;;
75639;SDS011;64233;51.486;6.332;2023-09-08T09:30:24;7.05;;;4.15;;
75639;SDS011;64233;51.486;6.332;2023-09-08T09:33:03;7.40;;;4.53;;
75639;SDS011;64233;51.486;6.332;2023-09-08T09:35:43;7.70;;;4.40;;
75639;SDS011;64233;51.486;6.332;2023-09-08T09:38:15;6.25;;;4.60;;
75639;SDS011;64233;51.486;6.332;2023-09-08T09:40:41;9.70;;;4.85;;
75639;SDS011;64233;51.486;6.332;2023-09-08T09:43:07;10.20;;;4.72;;
75639;SDS011;64233;51.486;6.332;2023-09-08T09:45:33;6.75;;;4.13;;
75639;SDS011;64233;51.486;6.332;2023-09-08T09:47:59;10.75;;;5.65;;
75639;SDS011;64233;51.486;6.332;2023-09-08T09:50:28;8.68;;;5.15;;
75639;SDS011;64233;51.486;6.332;2023-09-08T09:52:57;6.55;;;4.50;;
75639;SDS011;64233;51.486;6.332;2023-09-08T09:55:24;6.45;;;4.20;;
75639;SDS011;64233;51.486;6.332;2023-09-08T09:57:51;6.90;;;4.85;;
75639;SDS011;64233;51.486;6.332;2023-09-08T10:00:20;8.75;;;4.60;;
75639;SDS011;64233;51.486;6.332;2023-09-08T10:02:46;6.40;;;4.93;;
75639;SDS011;64233;51.486;6.332;2023-09-08T10:05:12;7.78;;;5.45;;
75639;SDS011;64233;51.486;6.332;2023-09-08T10:07:38;6.80;;;4.93;;
75639;SDS011;64233;51.486;6.332;2023-09-08T10:10:05;7.82;;;5.13;;
75639;SDS011;64233;51.486;6.332;2023-09-08T10:12:31;6.70;;;5.07;;
75639;SDS011;64233;51.486;6.332;2023-09-08T10:15:00;6.72;;;4.53;;
75639;SDS011;64233;51.486;6.332;2023-09-08T10:17:28;5.97;;;4.50;;
75639;SDS011;64233;51.486;6.332;2023-09-08T10:19:56;5.88;;;4.03;;
75639;SDS011;64233;51.486;6.332;2023-09-08T10:22:26;5.57;;;4.55;;
75639;SDS011;64233;51.486;6.332;2023-09-08T10:24:55;5.53;;;4.47;;
75639;SDS011;64233;51.486;6.332;2023-09-08T10:27:28;6.65;;;4.28;;
75639;SDS011;64233;51.486;6.332;2023-09-08T10:29:53;8.48;;;4.88;;
75639;SDS011;64233;51.486;6.332;2023-09-08T10:32:19;6.85;;;4.45;;
75639;SDS011;64233;51.486;6.332;2023-09-08T10:34:46;8.00;;;4.72;;
75639;SDS011;64233;51.486;6.332;2023-09-08T10:37:23;6.10;;;3.97;;
75639;SDS011;64233;51.486;6.332;2023-09-08T10:39:52;10.55;;;4.65;;
75639;SDS011;64233;51.486;6.332;2023-09-08T10:42:19;5.88;;;4.80;;
75639;SDS011;64233;51.486;6.332;2023-09-08T10:47:19;7.25;;;4.90;;
75639;SDS011;64233;51.486;6.332;2023-09-08T10:49:48;7.93;;;4.35;;
75639;SDS011;64233;51.486;6.332;2023-09-08T10:52:15;8.25;;;4.47;;
75639;SDS011;64233;51.486;6.332;2023-09-08T10:54:46;6.03;;;4.10;;
75639;SDS011;64233;51.486;6.332;2023-09-08T10:57:13;5.47;;;4.57;;
75639;SDS011;64233;51.486;6.332;2023-09-08T10:59:40;7.50;;;4.35;;
75639;SDS011;64233;51.486;6.332;2023-09-08T11:02:30;8.95;;;4.80;;
75639;SDS011;64233;51.486;6.332;2023-09-08T11:04:57;8.20;;;4.20;;
75639;SDS011;64233;51.486;6.332;2023-09-08T11:07:24;5.35;;;4.05;;
75639;SDS011;64233;51.486;6.332;2023-09-08T11:09:49;5.10;;;4.40;;
75639;SDS011;64233;51.486;6.332;2023-09-08T11:12:15;7.47;;;4.13;;
75639;SDS011;64233;51.486;6.332;2023-09-08T11:14:41;8.35;;;5.28;;
75639;SDS011;64233;51.486;6.332;2023-09-08T11:17:08;6.95;;;4.20;;
75639;SDS011;64233;51.486;6.332;2023-09-08T11:19:46;7.25;;;4.25;;
75639;SDS011;64233;51.486;6.332;2023-09-08T11:22:12;5.43;;;3.65;;
75639;SDS011;64233;51.486;6.332;2023-09-08T11:24:38;8.90;;;4.53;;
75639;SDS011;64233;51.486;6.332;2023-09-08T11:27:04;5.50;;;4.35;;
75639;SDS011;64233;51.486;6.332;2023-09-08T11:29:30;7.72;;;4.45;;
75639;SDS011;64233;51.486;6.332;2023-09-08T11:31:56;11.75;;;4.82;;
75639;SDS011;64233;51.486;6.332;2023-09-08T11:34:21;5.45;;;4.00;;
75639;SDS011;64233;51.486;6.332;2023-09-08T11:36:46;4.83;;;3.97;;
75639;SDS011;64233;51.486;6.332;2023-09-08T11:39:11;7.53;;;4.27;;
75639;SDS011;64233;51.486;6.332;2023-09-08T11:41:37;5.17;;;4.03;;
75639;SDS011;64233;51.486;6.332;2023-09-08T11:44:02;7.35;;;4.38;;
75639;SDS011;64233;51.486;6.332;2023-09-08T11:46:28;5.38;;;4.47;;
75639;SDS011;64233;51.486;6.332;2023-09-08T11:48:53;5.37;;;4.63;;
75639;SDS011;64233;51.486;6.332;2023-09-08T11:51:27;7.22;;;4.18;;
75639;SDS011;64233;51.486;6.332;2023-09-08T11:53:53;5.50;;;4.47;;
75639;SDS011;64233;51.486;6.332;2023-09-08T11:56:19;7.00;;;4.50;;
75639;SDS011;64233;51.486;6.332;2023-09-08T11:58:44;4.85;;;4.28;;
75639;SDS011;64233;51.486;6.332;2023-09-08T12:01:10;5.25;;;4.60;;
75639;SDS011;64233;51.486;6.332;2023-09-08T12:03:35;7.07;;;4.82;;
75639;SDS011;64233;51.486;6.332;2023-09-08T12:06:16;5.47;;;3.97;;
75639;SDS011;64233;51.486;6.332;2023-09-08T12:08:41;6.03;;;4.25;;
75639;SDS011;64233;51.486;6.332;2023-09-08T12:11:06;8.15;;;4.78;;
75639;SDS011;64233;51.486;6.332;2023-09-08T12:13:33;4.88;;;4.38;;
75639;SDS011;64233;51.486;6.332;2023-09-08T12:15:59;6.93;;;4.60;;
75639;SDS011;64233;51.486;6.332;2023-09-08T12:18:37;5.13;;;4.13;;
75639;SDS011;64233;51.486;6.332;2023-09-08T12:21:04;9.43;;;4.20;;
75639;SDS011;64233;51.486;6.332;2023-09-08T12:23:33;5.30;;;4.32;;
75639;SDS011;64233;51.486;6.332;2023-09-08T12:25:58;5.83;;;4.33;;
75639;SDS011;64233;51.486;6.332;2023-09-08T12:28:24;6.85;;;5.00;;
75639;SDS011;64233;51.486;6.332;2023-09-08T12:30:55;8.70;;;4.68;;
75639;SDS011;64233;51.486;6.332;2023-09-08T12:33:21;6.03;;;3.90;;
75639;SDS011;64233;51.486;6.332;2023-09-08T12:35:48;5.97;;;4.32;;
75639;SDS011;64233;51.486;6.332;2023-09-08T12:38:15;5.88;;;4.72;;
75639;SDS011;64233;51.486;6.332;2023-09-08T12:40:41;6.75;;;4.55;;
75639;SDS011;64233;51.486;6.332;2023-09-08T12:43:06;5.90;;;4.07;;
75639;SDS011;64233;51.486;6.332;2023-09-08T12:45:32;5.18;;;4.68;;
75639;SDS011;64233;51.486;6.332;2023-09-08T12:47:58;5.60;;;3.78;;
75639;SDS011;64233;51.486;6.332;2023-09-08T12:50:29;4.80;;;3.88;;
75639;SDS011;64233;51.486;6.332;2023-09-08T12:52:55;6.28;;;4.00;;
75639;SDS011;64233;51.486;6.332;2023-09-08T12:55:20;10.00;;;4.25;;
75639;SDS011;64233;51.486;6.332;2023-09-08T12:57:47;5.93;;;4.38;;
75639;SDS011;64233;51.486;6.332;2023-09-08T13:00:13;4.95;;;4.45;;
75639;SDS011;64233;51.486;6.332;2023-09-08T13:02:39;4.70;;;4.00;;
75639;SDS011;64233;51.486;6.332;2023-09-08T13:05:06;7.63;;;4.15;;
75639;SDS011;64233;51.486;6.332;2023-09-08T13:07:33;4.90;;;4.43;;
75639;SDS011;64233;51.486;6.332;2023-09-08T13:09:58;4.32;;;3.92;;
75639;SDS011;64233;51.486;6.332;2023-09-08T13:12:23;5.30;;;4.38;;
75639;SDS011;64233;51.486;6.332;2023-09-08T13:14:49;7.93;;;3.77;;
75639;SDS011;64233;51.486;6.332;2023-09-08T13:17:14;5.60;;;4.25;;
75639;SDS011;64233;51.486;6.332;2023-09-08T13:19:40;5.18;;;3.90;;
75639;SDS011;64233;51.486;6.332;2023-09-08T13:22:06;11.43;;;4.65;;
75639;SDS011;64233;51.486;6.332;2023-09-08T13:24:31;21.88;;;5.40;;
75639;SDS011;64233;51.486;6.332;2023-09-08T13:26:57;7.72;;;4.80;;
75639;SDS011;64233;51.486;6.332;2023-09-08T13:29:22;5.82;;;4.63;;
75639;SDS011;64233;51.486;6.332;2023-09-08T13:31:48;5.65;;;4.60;;
75639;SDS011;64233;51.486;6.332;2023-09-08T13:34:13;7.45;;;3.85;;
75639;SDS011;64233;51.486;6.332;2023-09-08T13:36:39;5.18;;;4.35;;
75639;SDS011;64233;51.486;6.332;2023-09-08T13:39:04;6.10;;;4.78;;
75639;SDS011;64233;51.486;6.332;2023-09-08T13:44:19;5.35;;;4.53;;
75639;SDS011;64233;51.486;6.332;2023-09-08T13:46:45;6.57;;;4.15;;
75639;SDS011;64233;51.486;6.332;2023-09-08T13:49:11;8.13;;;4.05;;
75639;SDS011;64233;51.486;6.332;2023-09-08T13:51:37;9.63;;;4.80;;
75639;SDS011;64233;51.486;6.332;2023-09-08T13:54:02;5.80;;;4.60;;
75639;SDS011;64233;51.486;6.332;2023-09-08T13:56:27;17.35;;;5.00;;
75639;SDS011;64233;51.486;6.332;2023-09-08T13:58:53;5.57;;;4.37;;
75639;SDS011;64233;51.486;6.332;2023-09-08T14:01:18;6.47;;;4.25;;
75639;SDS011;64233;51.486;6.332;2023-09-08T14:03:43;5.77;;;4.17;;
75639;SDS011;64233;51.486;6.332;2023-09-08T14:06:08;7.35;;;4.20;;
75639;SDS011;64233;51.486;6.332;2023-09-08T14:08:34;6.90;;;4.07;;
75639;SDS011;64233;51.486;6.332;2023-09-08T14:10:59;9.83;;;4.03;;
75639;SDS011;64233;51.486;6.332;2023-09-08T14:13:24;7.70;;;4.20;;
75639;SDS011;64233;51.486;6.332;2023-09-08T14:15:50;4.97;;;4.47;;
75639;SDS011;64233;51.486;6.332;2023-09-08T14:18:15;9.73;;;4.38;;
75639;SDS011;64233;51.486;6.332;2023-09-08T14:20:41;6.88;;;4.28;;
75639;SDS011;64233;51.486;6.332;2023-09-08T14:23:07;7.70;;;3.88;;
75639;SDS011;64233;51.486;6.332;2023-09-08T14:25:33;6.65;;;4.63;;
75639;SDS011;64233;51.486;6.332;2023-09-08T14:27:59;13.90;;;4.70;;
75639;SDS011;64233;51.486;6.332;2023-09-08T14:30:24;4.78;;;4.30;;
75639;SDS011;64233;51.486;6.332;2023-09-08T14:32:49;9.40;;;4.37;;
75639;SDS011;64233;51.486;6.332;2023-09-08T14:35:15;8.10;;;4.63;;
75639;SDS011;64233;51.486;6.332;2023-09-08T14:37:40;6.70;;;4.32;;
75639;SDS011;64233;51.486;6.332;2023-09-08T14:40:05;6.80;;;4.90;;
75639;SDS011;64233;51.486;6.332;2023-09-08T14:42:31;7.25;;;4.50;;
75639;SDS011;64233;51.486;6.332;2023-09-08T14:44:56;6.72;;;4.75;;